sensor_id;sensor_type;location;lat;lon;timestamp;P1;durP1;ratioP1;P2;durP2;ratioP2
809;SDS011;387;48.772;9.186;2024-03-02T00:00:05;21.10;;;10.50;;
809;SDS011;387;48.772;9.186;2024-03-02T00:02:45;20.73;;;12.00;;
809;SDS011;387;48.772;9.186;2024-03-02T00:05:15;25.30;;;12.67;;
809;SDS011;387;48.772;9.186;2024-03-02T00:07:57;24.97;;;12.67;;
809;SDS011;387;48.772;9.186;2024-03-02T00:10:26;19.90;;;11.67;;
809;SDS011;387;48.772;9.186;2024-03-02T00:12:56;22.03;;;12.80;;
809;SDS011;387;48.772;9.186;2024-03-02T00:15:42;20.37;;;11.07;;
809;SDS011;387;48.772;9.186;2024-03-02T00:18:12;21.83;;;12.50;;
809;SDS011;387;48.772;9.186;2024-03-02T00:20:39;20.07;;;12.00;;
809;SDS011;387;48.772;9.186;2024-03-02T00:23:06;17.27;;;10.73;;
809;SDS011;387;48.772;9.186;2024-03-02T00:25:40;21.00;;;11.50;;
809;SDS011;387;48.772;9.186;2024-03-02T00:33:42;23.00;;;11.27;;
809;SDS011;387;48.772;9.186;2024-03-02T00:36:08;20.10;;;10.97;;
809;SDS011;387;48.772;9.186;2024-03-02T00:38:38;19.47;;;11.27;;
809;SDS011;387;48.772;9.186;2024-03-02T00:41:15;21.63;;;11.43;;
809;SDS011;387;48.772;9.186;2024-03-02T00:44:04;16.90;;;10.10;;
809;SDS011;387;48.772;9.186;2024-03-02T00:46:36;16.70;;;10.50;;
809;SDS011;387;48.772;9.186;2024-03-02T00:51:37;17.57;;;8.97;;
809;SDS011;387;48.772;9.186;2024-03-02T00:54:04;16.83;;;8.73;;
809;SDS011;387;48.772;9.186;2024-03-02T00:56:31;19.40;;;10.73;;
809;SDS011;387;48.772;9.186;2024-03-02T00:58:58;16.33;;;9.40;;
809;SDS011;387;48.772;9.186;2024-03-02T01:01:23;19.07;;;9.90;;
809;SDS011;387;48.772;9.186;2024-03-02T01:03:49;16.50;;;8.93;;
809;SDS011;387;48.772;9.186;2024-03-02T01:06:15;21.00;;;10.57;;
809;SDS011;387;48.772;9.186;2024-03-02T01:08:42;20.10;;;11.17;;
809;SDS011;387;48.772;9.186;2024-03-02T01:11:08;18.20;;;9.53;;
809;SDS011;387;48.772;9.186;2024-03-02T01:13:33;17.30;;;10.17;;
809;SDS011;387;48.772;9.186;2024-03-02T01:15:59;15.77;;;9.50;;
809;SDS011;387;48.772;9.186;2024-03-02T01:18:25;16.10;;;9.33;;
809;SDS011;387;48.772;9.186;2024-03-02T01:20:51;23.00;;;10.30;;
809;SDS011;387;48.772;9.186;2024-03-02T01:23:20;16.37;;;9.13;;
809;SDS011;387;48.772;9.186;2024-03-02T01:25:49;15.77;;;8.70;;
809;SDS011;387;48.772;9.186;2024-03-02T01:28:15;16.33;;;9.57;;
809;SDS011;387;48.772;9.186;2024-03-02T01:30:41;17.23;;;9.17;;
809;SDS011;387;48.772;9.186;2024-03-02T01:33:07;20.70;;;9.70;;
809;SDS011;387;48.772;9.186;2024-03-02T01:35:33;23.87;;;10.40;;
809;SDS011;387;48.772;9.186;2024-03-02T01:38:00;20.00;;;11.80;;
809;SDS011;387;48.772;9.186;2024-03-02T01:40:26;19.70;;;10.33;;
809;SDS011;387;48.772;9.186;2024-03-02T01:42:52;19.83;;;10.50;;
809;SDS011;387;48.772;9.186;2024-03-02T01:45:23;17.00;;;10.23;;
809;SDS011;387;48.772;9.186;2024-03-02T01:47:49;24.03;;;11.13;;
809;SDS011;387;48.772;9.186;2024-03-02T01:50:15;23.17;;;10.67;;
809;SDS011;387;48.772;9.186;2024-03-02T01:52:48;17.10;;;10.10;;
809;SDS011;387;48.772;9.186;2024-03-02T01:55:14;21.37;;;11.77;;
809;SDS011;387;48.772;9.186;2024-03-02T01:57:40;19.30;;;10.30;;
809;SDS011;387;48.772;9.186;2024-03-02T02:00:06;21.83;;;11.70;;
809;SDS011;387;48.772;9.186;2024-03-02T02:02:32;19.17;;;10.57;;
809;SDS011;387;48.772;9.186;2024-03-02T02:04:57;20.47;;;9.40;;
809;SDS011;387;48.772;9.186;2024-03-02T02:07:23;17.30;;;9.23;;
809;SDS011;387;48.772;9.186;2024-03-02T02:09:49;16.63;;;9.67;;
809;SDS011;387;48.772;9.186;2024-03-02T02:12:14;19.67;;;10.40;;
809;SDS011;387;48.772;9.186;2024-03-02T02:14:46;18.93;;;9.80;;
809;SDS011;387;48.772;9.186;2024-03-02T02:17:13;21.03;;;9.70;;
809;SDS011;387;48.772;9.186;2024-03-02T02:19:40;18.57;;;10.70;;
809;SDS011;387;48.772;9.186;2024-03-02T02:22:06;19.47;;;9.53;;
809;SDS011;387;48.772;9.186;2024-03-02T02:24:31;17.70;;;9.93;;
809;SDS011;387;48.772;9.186;2024-03-02T02:26:57;18.13;;;9.80;;
809;SDS011;387;48.772;9.186;2024-03-02T02:29:23;22.13;;;10.03;;
809;SDS011;387;48.772;9.186;2024-03-02T02:31:48;22.07;;;10.77;;
809;SDS011;387;48.772;9.186;2024-03-02T02:34:14;21.60;;;10.37;;
809;SDS011;387;48.772;9.186;2024-03-02T02:36:40;19.97;;;10.23;;
809;SDS011;387;48.772;9.186;2024-03-02T02:39:07;21.93;;;10.67;;
809;SDS011;387;48.772;9.186;2024-03-02T02:41:37;20.30;;;10.63;;
809;SDS011;387;48.772;9.186;2024-03-02T02:44:02;18.80;;;9.70;;
809;SDS011;387;48.772;9.186;2024-03-02T02:46:28;22.43;;;11.30;;
809;SDS011;387;48.772;9.186;2024-03-02T02:48:54;22.47;;;12.07;;
809;SDS011;387;48.772;9.186;2024-03-02T02:51:19;21.17;;;9.70;;
809;SDS011;387;48.772;9.186;2024-03-02T02:53:45;18.63;;;9.60;;
809;SDS011;387;48.772;9.186;2024-03-02T02:56:11;19.90;;;11.00;;
809;SDS011;387;48.772;9.186;2024-03-02T02:58:37;20.00;;;10.80;;
809;SDS011;387;48.772;9.186;2024-03-02T03:01:02;19.73;;;9.83;;
809;SDS011;387;48.772;9.186;2024-03-02T03:03:28;31.17;;;13.33;;
809;SDS011;387;48.772;9.186;2024-03-02T03:05:54;26.43;;;11.90;;
809;SDS011;387;48.772;9.186;2024-03-02T03:08:20;23.00;;;12.37;;
809;SDS011;387;48.772;9.186;2024-03-02T03:10:45;23.47;;;11.80;;
809;SDS011;387;48.772;9.186;2024-03-02T03:13:11;21.10;;;11.33;;
809;SDS011;387;48.772;9.186;2024-03-02T03:15:37;24.30;;;11.20;;
809;SDS011;387;48.772;9.186;2024-03-02T03:18:03;21.53;;;11.53;;
809;SDS011;387;48.772;9.186;2024-03-02T03:20:29;25.93;;;11.50;;
809;SDS011;387;48.772;9.186;2024-03-02T03:22:56;23.37;;;12.27;;
809;SDS011;387;48.772;9.186;2024-03-02T03:25:22;23.03;;;11.13;;
809;SDS011;387;48.772;9.186;2024-03-02T03:27:47;21.90;;;11.40;;
809;SDS011;387;48.772;9.186;2024-03-02T03:30:13;19.50;;;10.40;;
809;SDS011;387;48.772;9.186;2024-03-02T03:32:39;20.97;;;10.40;;
809;SDS011;387;48.772;9.186;2024-03-02T03:35:05;24.07;;;11.63;;
809;SDS011;387;48.772;9.186;2024-03-02T03:37:31;21.63;;;10.47;;
809;SDS011;387;48.772;9.186;2024-03-02T03:40:00;23.40;;;11.30;;
809;SDS011;387;48.772;9.186;2024-03-02T03:42:26;23.10;;;11.67;;
809;SDS011;387;48.772;9.186;2024-03-02T03:44:52;23.80;;;9.90;;
809;SDS011;387;48.772;9.186;2024-03-02T03:47:17;22.13;;;11.23;;
809;SDS011;387;48.772;9.186;2024-03-02T03:49:43;23.77;;;11.50;;
809;SDS011;387;48.772;9.186;2024-03-02T03:52:09;25.33;;;12.17;;
809;SDS011;387;48.772;9.186;2024-03-02T03:54:34;26.53;;;11.93;;
809;SDS011;387;48.772;9.186;2024-03-02T03:57:02;27.60;;;11.33;;
809;SDS011;387;48.772;9.186;2024-03-02T03:59:27;24.17;;;11.40;;
809;SDS011;387;48.772;9.186;2024-03-02T04:01:53;23.33;;;11.90;;
809;SDS011;387;48.772;9.186;2024-03-02T04:04:18;25.03;;;11.60;;
809;SDS011;387;48.772;9.186;2024-03-02T04:06:44;21.30;;;10.23;;
809;SDS011;387;48.772;9.186;2024-03-02T04:09:10;35.30;;;14.73;;
809;SDS011;387;48.772;9.186;2024-03-02T04:11:35;26.40;;;13.63;;
809;SDS011;387;48.772;9.186;2024-03-02T04:14:01;30.07;;;13.50;;
809;SDS011;387;48.772;9.186;2024-03-02T04:16:27;22.97;;;12.67;;
809;SDS011;387;48.772;9.186;2024-03-02T04:18:53;29.17;;;13.17;;
809;SDS011;387;48.772;9.186;2024-03-02T04:21:19;29.40;;;13.33;;
809;SDS011;387;48.772;9.186;2024-03-02T04:23:45;29.47;;;13.57;;
809;SDS011;387;48.772;9.186;2024-03-02T04:26:10;23.70;;;12.17;;
809;SDS011;387;48.772;9.186;2024-03-02T04:28:36;27.83;;;11.97;;
809;SDS011;387;48.772;9.186;2024-03-02T04:31:02;28.50;;;14.10;;
809;SDS011;387;48.772;9.186;2024-03-02T04:33:27;22.27;;;11.00;;
809;SDS011;387;48.772;9.186;2024-03-02T04:35:53;25.50;;;11.77;;
809;SDS011;387;48.772;9.186;2024-03-02T04:38:18;25.90;;;11.77;;
809;SDS011;387;48.772;9.186;2024-03-02T04:40:44;29.17;;;12.77;;
809;SDS011;387;48.772;9.186;2024-03-02T04:43:09;22.83;;;11.30;;
809;SDS011;387;48.772;9.186;2024-03-02T04:45:37;23.30;;;11.50;;
809;SDS011;387;48.772;9.186;2024-03-02T04:48:03;28.80;;;11.70;;
809;SDS011;387;48.772;9.186;2024-03-02T04:50:29;28.23;;;14.37;;
809;SDS011;387;48.772;9.186;2024-03-02T04:52:55;23.63;;;12.13;;
809;SDS011;387;48.772;9.186;2024-03-02T04:55:20;26.17;;;12.10;;
809;SDS011;387;48.772;9.186;2024-03-02T04:57:48;25.87;;;13.00;;
809;SDS011;387;48.772;9.186;2024-03-02T05:00:15;24.53;;;11.67;;
809;SDS011;387;48.772;9.186;2024-03-02T05:02:42;24.53;;;11.80;;
809;SDS011;387;48.772;9.186;2024-03-02T05:05:07;26.63;;;13.00;;
809;SDS011;387;48.772;9.186;2024-03-02T05:07:33;25.37;;;13.40;;
809;SDS011;387;48.772;9.186;2024-03-02T05:09:59;30.83;;;13.80;;
809;SDS011;387;48.772;9.186;2024-03-02T05:12:24;32.10;;;13.37;;
809;SDS011;387;48.772;9.186;2024-03-02T05:15:21;29.73;;;12.80;;
809;SDS011;387;48.772;9.186;2024-03-02T05:17:47;21.83;;;11.10;;
809;SDS011;387;48.772;9.186;2024-03-02T05:20:12;25.17;;;12.10;;
809;SDS011;387;48.772;9.186;2024-03-02T05:22:38;31.33;;;13.80;;
809;SDS011;387;48.772;9.186;2024-03-02T05:25:04;29.53;;;14.13;;
809;SDS011;387;48.772;9.186;2024-03-02T05:27:31;30.97;;;14.30;;
809;SDS011;387;48.772;9.186;2024-03-02T05:30:00;28.60;;;12.80;;
809;SDS011;387;48.772;9.186;2024-03-02T05:32:25;33.50;;;14.20;;
809;SDS011;387;48.772;9.186;2024-03-02T05:34:51;30.97;;;13.73;;
809;SDS011;387;48.772;9.186;2024-03-02T05:37:18;30.97;;;13.53;;
809;SDS011;387;48.772;9.186;2024-03-02T05:39:43;33.43;;;15.77;;
809;SDS011;387;48.772;9.186;2024-03-02T05:42:09;26.70;;;14.40;;
809;SDS011;387;48.772;9.186;2024-03-02T05:44:35;25.23;;;13.03;;
809;SDS011;387;48.772;9.186;2024-03-02T05:47:01;31.67;;;12.73;;
809;SDS011;387;48.772;9.186;2024-03-02T05:49:28;38.07;;;14.87;;
809;SDS011;387;48.772;9.186;2024-03-02T05:51:53;25.63;;;12.37;;
809;SDS011;387;48.772;9.186;2024-03-02T05:54:19;28.67;;;12.93;;
809;SDS011;387;48.772;9.186;2024-03-02T05:56:44;31.50;;;13.27;;
809;SDS011;387;48.772;9.186;2024-03-02T05:59:10;28.37;;;12.40;;
809;SDS011;387;48.772;9.186;2024-03-02T06:01:38;22.97;;;11.10;;
809;SDS011;387;48.772;9.186;2024-03-02T06:04:08;27.60;;;13.70;;
809;SDS011;387;48.772;9.186;2024-03-02T06:06:34;28.17;;;13.30;;
809;SDS011;387;48.772;9.186;2024-03-02T06:09:03;29.60;;;13.50;;
809;SDS011;387;48.772;9.186;2024-03-02T06:11:36;24.63;;;12.17;;
809;SDS011;387;48.772;9.186;2024-03-02T06:14:06;26.90;;;12.43;;
809;SDS011;387;48.772;9.186;2024-03-02T06:16:33;28.80;;;13.80;;
809;SDS011;387;48.772;9.186;2024-03-02T06:18:59;28.43;;;13.10;;
809;SDS011;387;48.772;9.186;2024-03-02T06:21:25;33.17;;;13.30;;
809;SDS011;387;48.772;9.186;2024-03-02T06:23:51;29.03;;;12.70;;
809;SDS011;387;48.772;9.186;2024-03-02T06:26:18;34.13;;;14.70;;
809;SDS011;387;48.772;9.186;2024-03-02T06:28:43;28.47;;;13.80;;
809;SDS011;387;48.772;9.186;2024-03-02T06:31:10;27.40;;;13.70;;
809;SDS011;387;48.772;9.186;2024-03-02T06:33:35;28.27;;;14.37;;
809;SDS011;387;48.772;9.186;2024-03-02T06:36:01;31.07;;;14.70;;
809;SDS011;387;48.772;9.186;2024-03-02T06:38:27;27.90;;;13.80;;
809;SDS011;387;48.772;9.186;2024-03-02T06:40:53;30.97;;;13.20;;
809;SDS011;387;48.772;9.186;2024-03-02T06:43:20;23.10;;;12.03;;
809;SDS011;387;48.772;9.186;2024-03-02T06:45:48;25.67;;;12.30;;
809;SDS011;387;48.772;9.186;2024-03-02T06:48:14;29.67;;;13.30;;
809;SDS011;387;48.772;9.186;2024-03-02T06:50:44;25.63;;;12.83;;
809;SDS011;387;48.772;9.186;2024-03-02T06:53:10;26.20;;;12.07;;
809;SDS011;387;48.772;9.186;2024-03-02T06:55:35;27.17;;;12.97;;
809;SDS011;387;48.772;9.186;2024-03-02T06:58:01;28.90;;;13.77;;
809;SDS011;387;48.772;9.186;2024-03-02T07:00:26;26.87;;;12.30;;
809;SDS011;387;48.772;9.186;2024-03-02T07:02:52;30.67;;;12.00;;
809;SDS011;387;48.772;9.186;2024-03-02T07:05:18;24.20;;;12.17;;
809;SDS011;387;48.772;9.186;2024-03-02T07:07:43;21.50;;;11.97;;
809;SDS011;387;48.772;9.186;2024-03-02T07:10:09;28.67;;;13.80;;
809;SDS011;387;48.772;9.186;2024-03-02T07:12:34;29.80;;;12.17;;
809;SDS011;387;48.772;9.186;2024-03-02T07:15:00;29.50;;;12.80;;
809;SDS011;387;48.772;9.186;2024-03-02T07:17:28;23.70;;;11.23;;
809;SDS011;387;48.772;9.186;2024-03-02T07:19:57;26.53;;;12.10;;
809;SDS011;387;48.772;9.186;2024-03-02T07:22:23;30.00;;;12.80;;
809;SDS011;387;48.772;9.186;2024-03-02T07:24:49;24.90;;;12.00;;
809;SDS011;387;48.772;9.186;2024-03-02T07:27:15;23.80;;;11.50;;
809;SDS011;387;48.772;9.186;2024-03-02T07:29:41;23.67;;;12.53;;
809;SDS011;387;48.772;9.186;2024-03-02T07:32:08;20.93;;;10.60;;
809;SDS011;387;48.772;9.186;2024-03-02T07:34:34;22.53;;;11.83;;
809;SDS011;387;48.772;9.186;2024-03-02T07:37:00;21.10;;;11.40;;
809;SDS011;387;48.772;9.186;2024-03-02T07:39:26;25.07;;;12.00;;
809;SDS011;387;48.772;9.186;2024-03-02T07:41:52;18.77;;;9.63;;
809;SDS011;387;48.772;9.186;2024-03-02T07:44:17;20.20;;;10.53;;
809;SDS011;387;48.772;9.186;2024-03-02T07:46:44;24.67;;;11.97;;
809;SDS011;387;48.772;9.186;2024-03-02T07:49:17;20.50;;;11.03;;
809;SDS011;387;48.772;9.186;2024-03-02T07:51:45;20.17;;;10.17;;
809;SDS011;387;48.772;9.186;2024-03-02T07:54:11;21.33;;;10.77;;
809;SDS011;387;48.772;9.186;2024-03-02T07:56:37;22.57;;;11.20;;
809;SDS011;387;48.772;9.186;2024-03-02T07:59:03;24.83;;;12.13;;
809;SDS011;387;48.772;9.186;2024-03-02T08:01:29;20.33;;;10.30;;
809;SDS011;387;48.772;9.186;2024-03-02T08:03:59;26.17;;;11.73;;
809;SDS011;387;48.772;9.186;2024-03-02T08:06:26;24.33;;;11.37;;
809;SDS011;387;48.772;9.186;2024-03-02T08:08:58;18.73;;;9.80;;
809;SDS011;387;48.772;9.186;2024-03-02T08:11:25;20.07;;;11.20;;
809;SDS011;387;48.772;9.186;2024-03-02T08:13:52;19.93;;;10.67;;
809;SDS011;387;48.772;9.186;2024-03-02T08:16:19;23.93;;;11.23;;
809;SDS011;387;48.772;9.186;2024-03-02T08:18:47;24.20;;;10.50;;
809;SDS011;387;48.772;9.186;2024-03-02T08:21:13;24.73;;;11.40;;
809;SDS011;387;48.772;9.186;2024-03-02T08:23:39;17.67;;;9.10;;
809;SDS011;387;48.772;9.186;2024-03-02T08:26:06;17.37;;;9.33;;
809;SDS011;387;48.772;9.186;2024-03-02T08:28:32;14.40;;;9.13;;
809;SDS011;387;48.772;9.186;2024-03-02T08:30:58;18.17;;;9.17;;
809;SDS011;387;48.772;9.186;2024-03-02T08:33:23;13.43;;;8.53;;
809;SDS011;387;48.772;9.186;2024-03-02T08:35:49;14.90;;;8.40;;
809;SDS011;387;48.772;9.186;2024-03-02T08:38:15;19.47;;;9.50;;
809;SDS011;387;48.772;9.186;2024-03-02T08:40:40;15.33;;;9.00;;
809;SDS011;387;48.772;9.186;2024-03-02T08:43:06;16.27;;;9.33;;
809;SDS011;387;48.772;9.186;2024-03-02T08:45:32;17.27;;;9.23;;
809;SDS011;387;48.772;9.186;2024-03-02T08:47:59;16.40;;;8.00;;
809;SDS011;387;48.772;9.186;2024-03-02T08:50:24;13.07;;;7.63;;
809;SDS011;387;48.772;9.186;2024-03-02T08:52:50;14.07;;;8.53;;
809;SDS011;387;48.772;9.186;2024-03-02T08:55:15;16.17;;;8.97;;
809;SDS011;387;48.772;9.186;2024-03-02T08:57:41;14.23;;;8.50;;
809;SDS011;387;48.772;9.186;2024-03-02T09:00:07;16.20;;;8.40;;
809;SDS011;387;48.772;9.186;2024-03-02T09:02:33;17.23;;;8.30;;
809;SDS011;387;48.772;9.186;2024-03-02T09:04:59;16.37;;;8.77;;
809;SDS011;387;48.772;9.186;2024-03-02T09:07:25;16.00;;;7.90;;
809;SDS011;387;48.772;9.186;2024-03-02T09:09:51;17.77;;;7.73;;
809;SDS011;387;48.772;9.186;2024-03-02T09:12:17;11.93;;;7.70;;
809;SDS011;387;48.772;9.186;2024-03-02T09:14:43;14.77;;;7.70;;
809;SDS011;387;48.772;9.186;2024-03-02T09:17:09;16.13;;;8.07;;
809;SDS011;387;48.772;9.186;2024-03-02T09:19:36;15.00;;;7.80;;
809;SDS011;387;48.772;9.186;2024-03-02T09:22:02;12.13;;;7.10;;
809;SDS011;387;48.772;9.186;2024-03-02T09:24:28;16.17;;;6.60;;
809;SDS011;387;48.772;9.186;2024-03-02T09:26:54;15.13;;;6.60;;
809;SDS011;387;48.772;9.186;2024-03-02T09:29:19;17.10;;;7.33;;
809;SDS011;387;48.772;9.186;2024-03-02T09:31:45;14.37;;;7.10;;
809;SDS011;387;48.772;9.186;2024-03-02T09:34:12;9.17;;;6.27;;
809;SDS011;387;48.772;9.186;2024-03-02T09:36:39;11.10;;;6.63;;
809;SDS011;387;48.772;9.186;2024-03-02T09:39:04;8.23;;;5.67;;
809;SDS011;387;48.772;9.186;2024-03-02T09:41:32;8.67;;;6.20;;
809;SDS011;387;48.772;9.186;2024-03-02T09:43:58;10.97;;;5.90;;
809;SDS011;387;48.772;9.186;2024-03-02T09:46:25;11.00;;;6.30;;
809;SDS011;387;48.772;9.186;2024-03-02T09:48:50;11.77;;;6.60;;
809;SDS011;387;48.772;9.186;2024-03-02T09:51:16;9.97;;;6.63;;
809;SDS011;387;48.772;9.186;2024-03-02T09:53:44;11.30;;;6.20;;
809;SDS011;387;48.772;9.186;2024-03-02T09:56:12;10.37;;;5.70;;
809;SDS011;387;48.772;9.186;2024-03-02T09:58:38;11.13;;;6.60;;
809;SDS011;387;48.772;9.186;2024-03-02T10:01:07;8.50;;;5.40;;
809;SDS011;387;48.772;9.186;2024-03-02T10:03:33;8.33;;;5.03;;
809;SDS011;387;48.772;9.186;2024-03-02T10:08:50;8.63;;;5.47;;
809;SDS011;387;48.772;9.186;2024-03-02T10:11:26;11.37;;;5.70;;
809;SDS011;387;48.772;9.186;2024-03-02T10:16:38;11.40;;;6.10;;
809;SDS011;387;48.772;9.186;2024-03-02T10:19:18;9.00;;;5.40;;
809;SDS011;387;48.772;9.186;2024-03-02T10:21:48;8.40;;;5.33;;
809;SDS011;387;48.772;9.186;2024-03-02T10:24:17;7.30;;;4.80;;
809;SDS011;387;48.772;9.186;2024-03-02T10:26:44;9.83;;;5.57;;
809;SDS011;387;48.772;9.186;2024-03-02T10:29:10;8.30;;;5.60;;
809;SDS011;387;48.772;9.186;2024-03-02T10:31:40;12.33;;;7.07;;
809;SDS011;387;48.772;9.186;2024-03-02T10:34:07;21.77;;;9.83;;
809;SDS011;387;48.772;9.186;2024-03-02T10:36:34;9.13;;;4.80;;
809;SDS011;387;48.772;9.186;2024-03-02T10:39:04;10.60;;;5.00;;
809;SDS011;387;48.772;9.186;2024-03-02T10:44:01;7.80;;;4.50;;
809;SDS011;387;48.772;9.186;2024-03-02T10:46:28;7.80;;;4.70;;
809;SDS011;387;48.772;9.186;2024-03-02T10:48:55;8.40;;;4.60;;
809;SDS011;387;48.772;9.186;2024-03-02T10:51:24;8.50;;;5.13;;
809;SDS011;387;48.772;9.186;2024-03-02T10:53:50;7.20;;;4.20;;
809;SDS011;387;48.772;9.186;2024-03-02T10:56:19;6.60;;;4.33;;
809;SDS011;387;48.772;9.186;2024-03-02T10:58:52;6.73;;;4.37;;
809;SDS011;387;48.772;9.186;2024-03-02T11:01:26;7.50;;;4.20;;
809;SDS011;387;48.772;9.186;2024-03-02T11:03:54;6.13;;;4.00;;
809;SDS011;387;48.772;9.186;2024-03-02T11:06:22;7.33;;;4.50;;
809;SDS011;387;48.772;9.186;2024-03-02T11:08:49;6.93;;;4.50;;
809;SDS011;387;48.772;9.186;2024-03-02T11:11:21;7.80;;;4.63;;
809;SDS011;387;48.772;9.186;2024-03-02T11:13:52;8.50;;;5.07;;
809;SDS011;387;48.772;9.186;2024-03-02T11:16:43;6.43;;;4.30;;
809;SDS011;387;48.772;9.186;2024-03-02T11:19:10;9.40;;;4.47;;
809;SDS011;387;48.772;9.186;2024-03-02T11:21:37;9.40;;;4.57;;
809;SDS011;387;48.772;9.186;2024-03-02T11:26:50;5.77;;;4.30;;
809;SDS011;387;48.772;9.186;2024-03-02T11:32:00;5.53;;;2.57;;
809;SDS011;387;48.772;9.186;2024-03-02T11:34:31;4.73;;;2.63;;
809;SDS011;387;48.772;9.186;2024-03-02T11:36:58;2.27;;;1.97;;
809;SDS011;387;48.772;9.186;2024-03-02T11:39:25;3.50;;;1.97;;
809;SDS011;387;48.772;9.186;2024-03-02T11:41:51;5.10;;;1.73;;
809;SDS011;387;48.772;9.186;2024-03-02T11:44:17;2.33;;;1.30;;
809;SDS011;387;48.772;9.186;2024-03-02T11:46:44;2.27;;;1.37;;
809;SDS011;387;48.772;9.186;2024-03-02T11:49:14;2.00;;;1.27;;
809;SDS011;387;48.772;9.186;2024-03-02T11:51:40;1.87;;;1.43;;
809;SDS011;387;48.772;9.186;2024-03-02T11:54:25;3.60;;;2.10;;
809;SDS011;387;48.772;9.186;2024-03-02T11:56:52;1.90;;;1.13;;
809;SDS011;387;48.772;9.186;2024-03-02T11:59:19;2.23;;;1.03;;
809;SDS011;387;48.772;9.186;2024-03-02T12:01:45;1.10;;;0.83;;
809;SDS011;387;48.772;9.186;2024-03-02T12:04:13;2.50;;;1.37;;
809;SDS011;387;48.772;9.186;2024-03-02T12:06:39;3.00;;;1.17;;
809;SDS011;387;48.772;9.186;2024-03-02T12:09:04;2.50;;;1.30;;
809;SDS011;387;48.772;9.186;2024-03-02T12:11:30;1.93;;;1.27;;
809;SDS011;387;48.772;9.186;2024-03-02T12:13:55;2.80;;;1.63;;
809;SDS011;387;48.772;9.186;2024-03-02T12:16:26;2.73;;;1.80;;
809;SDS011;387;48.772;9.186;2024-03-02T12:18:51;2.90;;;1.50;;
809;SDS011;387;48.772;9.186;2024-03-02T12:21:17;2.40;;;1.60;;
809;SDS011;387;48.772;9.186;2024-03-02T12:23:43;2.27;;;1.63;;
809;SDS011;387;48.772;9.186;2024-03-02T12:26:09;2.63;;;1.70;;
809;SDS011;387;48.772;9.186;2024-03-02T12:28:34;3.20;;;2.00;;
809;SDS011;387;48.772;9.186;2024-03-02T12:31:00;3.30;;;1.90;;
809;SDS011;387;48.772;9.186;2024-03-02T12:33:26;2.20;;;1.20;;
809;SDS011;387;48.772;9.186;2024-03-02T12:35:52;1.90;;;1.60;;
809;SDS011;387;48.772;9.186;2024-03-02T12:38:18;5.77;;;2.90;;
809;SDS011;387;48.772;9.186;2024-03-02T12:40:44;3.40;;;1.90;;
809;SDS011;387;48.772;9.186;2024-03-02T12:43:12;3.43;;;1.57;;
809;SDS011;387;48.772;9.186;2024-03-02T12:45:37;2.60;;;2.10;;
809;SDS011;387;48.772;9.186;2024-03-02T12:48:04;1.70;;;1.37;;
809;SDS011;387;48.772;9.186;2024-03-02T12:50:30;2.30;;;1.67;;
809;SDS011;387;48.772;9.186;2024-03-02T12:52:56;1.47;;;1.20;;
809;SDS011;387;48.772;9.186;2024-03-02T12:55:22;4.07;;;1.50;;
809;SDS011;387;48.772;9.186;2024-03-02T12:57:49;1.67;;;1.20;;
809;SDS011;387;48.772;9.186;2024-03-02T13:00:19;3.83;;;1.83;;
809;SDS011;387;48.772;9.186;2024-03-02T13:02:46;4.30;;;1.97;;
809;SDS011;387;48.772;9.186;2024-03-02T13:05:13;3.53;;;1.90;;
809;SDS011;387;48.772;9.186;2024-03-02T13:07:39;2.30;;;1.70;;
809;SDS011;387;48.772;9.186;2024-03-02T13:10:06;11.87;;;5.27;;
809;SDS011;387;48.772;9.186;2024-03-02T13:12:35;2.60;;;1.97;;
809;SDS011;387;48.772;9.186;2024-03-02T13:15:02;3.10;;;1.77;;
809;SDS011;387;48.772;9.186;2024-03-02T13:17:29;2.43;;;1.67;;
809;SDS011;387;48.772;9.186;2024-03-02T13:19:55;5.80;;;2.00;;
809;SDS011;387;48.772;9.186;2024-03-02T13:22:22;1.90;;;1.40;;
809;SDS011;387;48.772;9.186;2024-03-02T13:24:48;5.10;;;2.07;;
809;SDS011;387;48.772;9.186;2024-03-02T13:27:18;2.30;;;1.57;;
809;SDS011;387;48.772;9.186;2024-03-02T13:29:49;2.10;;;1.80;;
809;SDS011;387;48.772;9.186;2024-03-02T13:32:15;2.97;;;1.80;;
809;SDS011;387;48.772;9.186;2024-03-02T13:34:41;2.97;;;2.00;;
809;SDS011;387;48.772;9.186;2024-03-02T13:37:07;2.90;;;1.70;;
809;SDS011;387;48.772;9.186;2024-03-02T13:39:33;2.77;;;1.73;;
809;SDS011;387;48.772;9.186;2024-03-02T13:42:06;2.50;;;1.83;;
809;SDS011;387;48.772;9.186;2024-03-02T13:44:33;2.00;;;1.80;;
809;SDS011;387;48.772;9.186;2024-03-02T13:46:59;3.03;;;2.23;;
809;SDS011;387;48.772;9.186;2024-03-02T13:49:25;3.57;;;2.33;;
809;SDS011;387;48.772;9.186;2024-03-02T13:51:58;4.03;;;2.13;;
809;SDS011;387;48.772;9.186;2024-03-02T13:54:38;1.87;;;1.60;;
809;SDS011;387;48.772;9.186;2024-03-02T13:57:08;3.00;;;2.23;;
809;SDS011;387;48.772;9.186;2024-03-02T13:59:35;1.93;;;1.40;;
809;SDS011;387;48.772;9.186;2024-03-02T14:02:02;1.83;;;1.40;;
809;SDS011;387;48.772;9.186;2024-03-02T14:04:34;4.53;;;1.70;;
809;SDS011;387;48.772;9.186;2024-03-02T14:07:00;3.13;;;1.50;;
809;SDS011;387;48.772;9.186;2024-03-02T14:09:27;3.10;;;2.03;;
809;SDS011;387;48.772;9.186;2024-03-02T14:11:53;2.80;;;2.03;;
809;SDS011;387;48.772;9.186;2024-03-02T14:14:19;3.17;;;1.90;;
809;SDS011;387;48.772;9.186;2024-03-02T14:16:45;2.57;;;1.70;;
809;SDS011;387;48.772;9.186;2024-03-02T14:19:10;2.40;;;1.50;;
809;SDS011;387;48.772;9.186;2024-03-02T14:21:37;2.90;;;1.97;;
809;SDS011;387;48.772;9.186;2024-03-02T14:24:04;2.90;;;1.40;;
809;SDS011;387;48.772;9.186;2024-03-02T14:26:29;3.93;;;1.90;;
809;SDS011;387;48.772;9.186;2024-03-02T14:28:55;2.67;;;1.90;;
809;SDS011;387;48.772;9.186;2024-03-02T14:31:21;3.83;;;1.73;;
809;SDS011;387;48.772;9.186;2024-03-02T14:33:46;3.30;;;1.80;;
809;SDS011;387;48.772;9.186;2024-03-02T14:36:12;2.20;;;1.80;;
809;SDS011;387;48.772;9.186;2024-03-02T14:38:38;6.97;;;2.23;;
809;SDS011;387;48.772;9.186;2024-03-02T14:41:04;2.70;;;1.80;;
809;SDS011;387;48.772;9.186;2024-03-02T14:43:30;4.27;;;1.73;;
809;SDS011;387;48.772;9.186;2024-03-02T14:45:56;2.03;;;1.50;;
809;SDS011;387;48.772;9.186;2024-03-02T14:48:23;2.33;;;1.80;;
809;SDS011;387;48.772;9.186;2024-03-02T14:50:49;2.10;;;1.53;;
809;SDS011;387;48.772;9.186;2024-03-02T14:53:16;2.10;;;1.30;;
809;SDS011;387;48.772;9.186;2024-03-02T14:55:41;2.20;;;1.40;;
809;SDS011;387;48.772;9.186;2024-03-02T14:58:07;3.00;;;1.47;;
809;SDS011;387;48.772;9.186;2024-03-02T15:00:33;6.93;;;2.13;;
809;SDS011;387;48.772;9.186;2024-03-02T15:02:58;2.43;;;1.40;;
809;SDS011;387;48.772;9.186;2024-03-02T15:05:24;4.13;;;1.77;;
809;SDS011;387;48.772;9.186;2024-03-02T15:07:50;4.77;;;2.37;;
809;SDS011;387;48.772;9.186;2024-03-02T15:10:16;2.00;;;1.40;;
809;SDS011;387;48.772;9.186;2024-03-02T15:12:42;2.20;;;1.00;;
809;SDS011;387;48.772;9.186;2024-03-02T15:15:07;1.23;;;1.10;;
809;SDS011;387;48.772;9.186;2024-03-02T15:17:35;2.70;;;1.67;;
809;SDS011;387;48.772;9.186;2024-03-02T15:20:01;2.60;;;1.73;;
809;SDS011;387;48.772;9.186;2024-03-02T15:22:29;3.53;;;1.77;;
809;SDS011;387;48.772;9.186;2024-03-02T15:24:55;2.30;;;1.70;;
809;SDS011;387;48.772;9.186;2024-03-02T15:27:20;2.20;;;1.40;;
809;SDS011;387;48.772;9.186;2024-03-02T15:29:46;3.10;;;2.27;;
809;SDS011;387;48.772;9.186;2024-03-02T15:32:13;2.00;;;1.43;;
809;SDS011;387;48.772;9.186;2024-03-02T15:34:38;3.80;;;1.60;;
809;SDS011;387;48.772;9.186;2024-03-02T15:37:04;3.17;;;1.60;;
809;SDS011;387;48.772;9.186;2024-03-02T15:39:29;3.33;;;1.80;;
809;SDS011;387;48.772;9.186;2024-03-02T15:41:55;8.73;;;1.90;;
809;SDS011;387;48.772;9.186;2024-03-02T15:44:21;3.20;;;1.90;;
809;SDS011;387;48.772;9.186;2024-03-02T15:46:46;3.77;;;2.03;;
809;SDS011;387;48.772;9.186;2024-03-02T15:49:12;1.60;;;1.40;;